Time;durP1;ratioP1;P1;durP2;ratioP2;P2;SDS_P1;SDS_P2;PMS_P1;PMS_P2;Temp;Humidity;BMP_temperature;BMP_pressure;BME280_temperature;BME280_humidity;BME280_pressure;Samples;Min_cycle;Max_cycle;Signal;HPM_P1;HPM_P2
2023/05/25 00:00:19;;;;;;;6.70;3.70;;;;;;;11.67;88.31;96329.13;5093819;28;20084;-64
2023/05/25 00:02:46;;;;;;;10.40;4.30;;;;;;;11.68;88.32;96319.50;5093908;28;20128;-64
2023/05/25 00:05:14;;;;;;;5.90;4.40;;;;;;;11.72;88.25;96324.53;5093752;28;20087;-62
2023/05/25 00:07:41;;;;;;;7.53;4.03;;;;;;;11.74;87.99;96327.91;5093776;28;20055;-63
2023/05/25 00:10:10;;;;;;;4.38;3.92;;;;;;;11.73;87.80;96326.22;5093614;28;20131;-64
2023/05/25 00:12:37;;;;;;;4.40;4.00;;;;;;;11.72;87.61;96324.53;5093760;28;20048;-63
2023/05/25 00:15:05;;;;;;;5.05;4.25;;;;;;;11.73;87.52;96322.75;5093671;28;20504;-64
2023/05/25 00:17:32;;;;;;;7.80;3.80;;;;;;;11.78;87.16;96323.41;5093523;28;20109;-63
2023/05/25 00:20:06;;;;;;;4.40;3.58;;;;;;;11.78;86.74;96330.41;5093573;28;20047;-62
2023/05/25 00:22:34;;;;;;;9.35;4.35;;;;;;;11.73;86.46;96325.38;5093497;28;20093;-64
2023/05/25 00:25:01;;;;;;;7.05;4.40;;;;;;;11.63;85.99;96324.94;5093306;28;20052;-63
2023/05/25 00:27:30;;;;;;;5.10;4.03;;;;;;;11.58;86.72;96322.53;5093470;28;20113;-64
2023/05/25 00:29:57;;;;;;;5.20;4.68;;;;;;;11.52;86.93;96327.19;5093501;28;20044;-63
2023/05/25 00:32:24;;;;;;;8.45;4.28;;;;;;;11.49;87.91;96323.81;5092863;28;20406;-63
2023/05/25 00:34:51;;;;;;;8.88;4.47;;;;;;;11.43;88.92;96324.06;5093396;28;20543;-64
2023/05/25 00:37:18;;;;;;;5.90;4.90;;;;;;;11.39;88.91;96327.75;5093279;28;20047;-63
2023/05/25 00:39:45;;;;;;;7.35;5.30;;;;;;;11.27;89.69;96323.91;5093130;28;20083;-64
2023/05/25 00:42:12;;;;;;;5.53;4.22;;;;;;;11.24;90.48;96324.06;5093320;28;20052;-63
2023/05/25 00:44:42;;;;;;;8.65;4.22;;;;;;;11.25;90.50;96315.28;5093165;28;20072;-64
2023/05/25 00:47:11;;;;;;;5.20;4.70;;;;;;;11.31;89.85;96324.63;5093309;28;20119;-64
2023/05/25 00:49:38;;;;;;;5.20;4.70;;;;;;;11.32;89.89;96321.94;5093163;28;20044;-63
2023/05/25 00:52:06;;;;;;;5.40;4.90;;;;;;;11.31;90.01;96317.63;5093169;28;20405;-63
2023/05/25 00:54:36;;;;;;;4.60;3.88;;;;;;;11.33;90.02;96318.41;5093226;28;20044;-64
2023/05/25 00:57:06;;;;;;;8.57;4.33;;;;;;;11.34;89.60;96314.88;5093169;28;20047;-64
2023/05/25 00:59:39;;;;;;;10.48;4.47;;;;;;;11.36;90.02;96307.81;5093065;28;20040;-62
2023/05/25 01:02:12;;;;;;;5.82;4.70;;;;;;;11.35;89.50;96305.25;5093072;28;20516;-64
2023/05/25 01:04:44;;;;;;;8.55;4.72;;;;;;;11.32;89.62;96306.22;5092896;28;20580;-62
2023/05/25 01:07:12;;;;;;;6.78;5.07;;;;;;;11.35;89.24;96306.09;5092979;28;20044;-64
2023/05/25 01:09:41;;;;;;;5.20;4.70;;;;;;;11.38;89.00;96303.31;5092991;28;20048;-63
2023/05/25 01:12:10;;;;;;;6.47;4.32;;;;;;;11.37;88.35;96308.63;5092920;28;20044;-64
2023/05/25 01:14:39;;;;;;;5.70;4.55;;;;;;;11.35;88.80;96313.94;5092890;28;20048;-64
2023/05/25 01:17:08;;;;;;;4.90;4.50;;;;;;;11.32;88.68;96308.84;5092780;28;20102;-63
2023/05/25 01:19:39;;;;;;;14.05;4.13;;;;;;;11.32;88.44;96308.00;5092813;28;20500;-63
2023/05/25 01:22:15;;;;;;;8.55;4.63;;;;;;;11.27;88.26;96310.81;5092864;28;20097;-64
2023/05/25 01:24:46;;;;;;;7.35;4.60;;;;;;;11.23;87.94;96317.13;5092906;28;20051;-64
2023/05/25 01:27:21;;;;;;;8.30;5.03;;;;;;;11.28;88.63;96315.13;5092881;28;20138;-62
2023/05/25 01:29:49;;;;;;;8.95;4.60;;;;;;;11.29;87.80;96305.53;5092795;28;20099;-63
2023/05/25 01:32:18;;;;;;;4.05;3.65;;;;;;;11.27;87.54;96302.97;5092724;28;20056;-64
2023/05/25 01:34:46;;;;;;;11.50;4.70;;;;;;;11.14;87.68;96307.03;5092772;28;20048;-62
2023/05/25 01:37:16;;;;;;;10.43;5.30;;;;;;;11.15;88.67;96304.38;5092665;28;20512;-65
2023/05/25 01:39:43;;;;;;;5.07;4.57;;;;;;;11.11;88.86;96313.28;5092564;28;20044;-62
2023/05/25 01:42:10;;;;;;;5.90;5.03;;;;;;;11.08;89.40;96306.38;5092536;28;20054;-63
2023/05/25 01:44:38;;;;;;;8.35;4.63;;;;;;;11.08;89.48;96308.19;5095871;28;20044;-64
2023/05/25 01:47:10;;;;;;;5.25;4.65;;;;;;;11.11;89.77;96308.03;5096368;28;20086;-64
2023/05/25 01:49:46;;;;;;;8.80;4.97;;;;;;;11.11;89.57;96303.63;5096413;28;20463;-64
2023/05/25 01:52:21;;;;;;;12.60;5.20;;;;;;;11.08;89.37;96298.53;5096398;28;20044;-63
2023/05/25 01:54:55;;;;;;;6.50;4.97;;;;;;;11.11;89.40;96302.81;5096367;28;20073;-64
2023/05/25 01:57:24;;;;;;;8.68;4.55;;;;;;;11.06;89.71;96305.63;5096327;28;20113;-63
2023/05/25 01:59:56;;;;;;;8.95;5.60;;;;;;;10.93;90.33;96305.28;5096171;28;20459;-64
2023/05/25 02:02:25;;;;;;;10.50;5.90;;;;;;;10.96;91.18;96305.16;5096237;28;20075;-61
2023/05/25 02:04:53;;;;;;;6.47;5.70;;;;;;;10.98;92.04;96298.09;5096009;28;20131;-63
2023/05/25 02:07:23;;;;;;;8.30;5.28;;;;;;;11.03;91.22;96310.13;5095885;28;20508;-63
2023/05/25 02:09:50;;;;;;;8.40;5.40;;;;;;;11.07;92.17;96312.53;5095971;28;20133;-63
2023/05/25 02:12:17;;;;;;;9.35;5.60;;;;;;;10.98;91.31;96311.19;5096016;28;20048;-62
2023/05/25 02:14:47;;;;;;;10.20;6.15;;;;;;;11.00;93.35;96318.97;5095814;28;20075;-61
2023/05/25 02:17:16;;;;;;;6.00;5.40;;;;;;;11.03;92.13;96321.47;5095912;28;20048;-63
2023/05/25 02:19:44;;;;;;;8.88;5.45;;;;;;;11.05;91.85;96313.53;5095858;28;20066;-63
2023/05/25 02:22:11;;;;;;;6.40;5.35;;;;;;;11.02;91.18;96322.38;5095719;28;20059;-64
2023/05/25 02:24:39;;;;;;;10.32;4.43;;;;;;;11.07;90.75;96316.91;5095772;28;20044;-64
2023/05/25 02:27:07;;;;;;;6.95;5.00;;;;;;;11.03;90.48;96323.22;5095474;28;20051;-64
2023/05/25 02:29:34;;;;;;;9.35;5.00;;;;;;;11.02;90.37;96318.91;5095642;28;20127;-62
2023/05/25 02:32:01;;;;;;;6.93;4.53;;;;;;;11.05;90.13;96324.00;5095649;28;20075;-63
2023/05/25 02:34:28;;;;;;;11.18;5.03;;;;;;;11.00;89.85;96321.59;5095539;28;20094;-63
2023/05/25 02:36:55;;;;;;;7.70;5.07;;;;;;;10.99;89.45;96325.13;5095448;28;20127;-64
2023/05/25 02:39:25;;;;;;;6.70;4.93;;;;;;;10.98;89.66;96329.50;5095208;28;20143;-63
2023/05/25 02:41:53;;;;;;;5.82;5.25;;;;;;;10.95;89.82;96329.63;5095464;28;20051;-63
2023/05/25 02:44:20;;;;;;;7.88;4.95;;;;;;;10.91;90.05;96335.91;5095374;28;20048;-62
2023/05/25 02:46:47;;;;;;;5.85;5.25;;;;;;;10.85;90.51;96333.56;5095140;28;20139;-64
2023/05/25 02:49:14;;;;;;;7.82;5.28;;;;;;;10.89;90.90;96335.13;5095261;28;20083;-63
2023/05/25 02:51:42;;;;;;;9.55;5.72;;;;;;;10.89;91.48;96342.16;5095229;28;20083;-64
2023/05/25 02:54:10;;;;;;;8.50;5.78;;;;;;;10.94;92.10;96343.66;5095160;28;20052;-63
2023/05/25 02:56:37;;;;;;;7.07;5.50;;;;;;;10.95;92.49;96340.09;5094765;28;20044;-64
2023/05/25 02:59:06;;;;;;;10.07;5.55;;;;;;;11.06;92.26;96344.03;5095088;28;20044;-62
2023/05/25 03:01:33;;;;;;;9.10;5.63;;;;;;;11.07;92.06;96349.19;5095050;28;20102;-62
2023/05/25 03:04:00;;;;;;;9.63;5.93;;;;;;;11.03;92.83;96346.78;5094981;28;20097;-62
2023/05/25 03:06:27;;;;;;;7.43;5.07;;;;;;;11.11;91.44;96342.06;5094753;28;20058;-61
2023/05/25 03:08:54;;;;;;;9.85;5.30;;;;;;;11.17;91.46;96336.53;5094737;28;20044;-62
2023/05/25 03:11:21;;;;;;;6.15;5.28;;;;;;;11.17;91.68;96336.53;5094869;28;20052;-64
2023/05/25 03:13:48;;;;;;;6.00;5.50;;;;;;;11.21;92.63;96342.50;5094911;28;20048;-62
2023/05/25 03:16:17;;;;;;;7.85;6.07;;;;;;;11.24;92.97;96345.00;5094851;28;20048;-64
2023/05/25 03:18:44;;;;;;;6.78;6.07;;;;;;;11.30;94.91;96336.88;5094661;28;20052;-63
2023/05/25 03:21:11;;;;;;;7.80;6.13;;;;;;;11.44;94.86;96343.28;5094693;28;20052;-64
2023/05/25 03:23:38;;;;;;;6.13;5.43;;;;;;;11.48;94.46;96347.44;5094715;28;20055;-61
2023/05/25 03:26:06;;;;;;;8.68;5.75;;;;;;;11.60;95.09;96341.66;5094467;28;20485;-64
2023/05/25 03:28:33;;;;;;;7.25;5.38;;;;;;;11.75;94.89;96350.56;5094438;28;20044;-63
2023/05/25 03:31:01;;;;;;;6.05;5.15;;;;;;;11.88;94.54;96347.38;5094355;28;20048;-62
2023/05/25 03:33:29;;;;;;;8.02;5.28;;;;;;;12.04;95.03;96346.69;5094458;28;20408;-62
2023/05/25 03:35:56;;;;;;;11.15;6.18;;;;;;;12.16;95.16;96347.91;5094272;28;20097;-64
2023/05/25 03:38:24;;;;;;;8.23;5.68;;;;;;;12.40;95.89;96358.16;5094035;28;20051;-64
2023/05/25 03:40:51;;;;;;;10.55;5.55;;;;;;;12.71;96.23;96348.78;5094132;28;20044;-64
2023/05/25 03:43:18;;;;;;;7.03;4.70;;;;;;;13.06;95.45;96347.94;5094105;28;20048;-61
2023/05/25 03:45:45;;;;;;;7.82;4.15;;;;;;;13.44;92.73;96349.47;5094114;28;20059;-63
2023/05/25 03:48:12;;;;;;;8.38;4.50;;;;;;;13.86;91.32;96355.19;5094267;28;20159;-64
2023/05/25 03:50:41;;;;;;;5.93;4.75;;;;;;;14.34;88.68;96347.31;5094150;28;20051;-63
2023/05/25 03:53:08;;;;;;;5.20;3.65;;;;;;;14.80;85.49;96347.41;5093973;28;20047;-64
2023/05/25 03:55:35;;;;;;;4.60;3.58;;;;;;;15.19;83.43;96346.00;5093891;28;20134;-63
2023/05/25 03:58:02;;;;;;;5.82;3.80;;;;;;;15.49;81.54;96349.50;5093928;28;20131;-64
2023/05/25 04:00:29;;;;;;;3.53;3.17;;;;;;;15.71;79.91;96342.91;5093835;28;20540;-61
2023/05/25 04:02:57;;;;;;;6.93;3.60;;;;;;;15.89;78.57;96351.44;5093923;28;20048;-65
2023/05/25 04:05:25;;;;;;;4.57;3.20;;;;;;;16.11;77.81;96351.00;5093739;28;20126;-61
2023/05/25 04:07:54;;;;;;;5.40;3.60;;;;;;;16.37;76.80;96347.59;5092795;28;20135;-63
2023/05/25 04:10:21;;;;;;;7.03;3.38;;;;;;;16.69;75.75;96352.59;5093710;28;20416;-62
2023/05/25 04:12:48;;;;;;;4.85;3.13;;;;;;;17.05;74.53;96355.53;5093777;28;20048;-63
2023/05/25 04:15:16;;;;;;;7.78;4.40;;;;;;;17.45;72.53;96356.44;5093780;28;20522;-64
2023/05/25 04:17:43;;;;;;;15.25;3.70;;;;;;;17.86;71.76;96357.16;5093672;28;20132;-63
2023/05/25 04:20:10;;;;;;;7.18;3.67;;;;;;;18.19;70.72;96366.31;5093488;28;20102;-65
2023/05/25 04:22:38;;;;;;;5.82;3.03;;;;;;;18.59;69.26;96367.00;5093580;28;20176;-64
2023/05/25 04:25:07;;;;;;;4.20;2.72;;;;;;;18.98;68.48;96361.50;5093488;28;20051;-62
2023/05/25 04:27:35;;;;;;;4.65;3.45;;;;;;;19.36;66.72;96364.91;5093338;28;20052;-64
2023/05/25 04:30:02;;;;;;;6.10;2.78;;;;;;;19.69;66.01;96366.75;5093390;28;20404;-64
2023/05/25 04:32:30;;;;;;;6.75;3.13;;;;;;;19.99;64.99;96375.09;5093366;28;20052;-65
2023/05/25 04:34:58;;;;;;;8.13;3.42;;;;;;;20.26;64.87;96370.38;5093331;28;20109;-63
2023/05/25 04:37:26;;;;;;;3.15;2.47;;;;;;;20.45;63.84;96367.94;5093240;28;20047;-66
2023/05/25 04:39:53;;;;;;;4.07;2.80;;;;;;;20.64;62.67;96371.72;5093166;28;20044;-62
2023/05/25 04:42:22;;;;;;;3.65;2.78;;;;;;;20.79;62.62;96376.75;5093341;28;20047;-63
2023/05/25 04:44:50;;;;;;;4.80;3.00;;;;;;;20.89;61.58;96367.03;5093389;28;20048;-63
2023/05/25 04:47:18;;;;;;;6.47;3.20;;;;;;;20.95;62.32;96366.56;5093280;28;20059;-63
2023/05/25 04:49:45;;;;;;;5.38;3.22;;;;;;;21.22;61.79;96369.69;5093250;28;20139;-63
2023/05/25 04:52:12;;;;;;;3.55;3.20;;;;;;;21.47;61.78;96378.28;5093156;28;20070;-62
2023/05/25 04:54:40;;;;;;;3.50;2.72;;;;;;;21.61;61.81;96373.59;5093118;28;20080;-63
2023/05/25 04:57:07;;;;;;;4.15;3.40;;;;;;;21.74;62.47;96368.91;5093169;28;20047;-65
2023/05/25 04:59:36;;;;;;;6.22;3.00;;;;;;;21.88;62.26;96367.72;5093175;28;20105;-65
2023/05/25 05:02:03;;;;;;;4.05;2.95;;;;;;;22.03;61.38;96375.34;5093050;28;20410;-63
2023/05/25 05:04:30;;;;;;;5.65;3.28;;;;;;;22.11;61.17;96372.84;5093093;28;20101;-65
2023/05/25 05:06:57;;;;;;;7.80;3.80;;;;;;;22.18;62.28;96374.00;5092900;28;20105;-65
2023/05/25 05:09:24;;;;;;;4.78;3.30;;;;;;;22.31;61.19;96378.25;5093001;28;20530;-64
2023/05/25 05:11:51;;;;;;;4.78;3.40;;;;;;;22.41;60.62;96381.78;5093248;28;20052;-63
2023/05/25 05:14:18;;;;;;;5.28;3.25;;;;;;;22.63;60.31;96385.19;5093162;28;20052;-63
2023/05/25 05:16:47;;;;;;;5.82;3.30;;;;;;;22.89;58.70;96379.34;5092872;28;20105;-65
2023/05/25 05:19:14;;;;;;;7.32;3.38;;;;;;;23.04;57.72;96385.09;5095629;28;20052;-64
2023/05/25 05:21:41;;;;;;;4.18;3.35;;;;;;;23.22;55.89;96379.03;5097054;28;20051;-64
2023/05/25 05:24:08;;;;;;;6.18;3.75;;;;;;;23.35;56.42;96379.59;5096896;28;20044;-63
2023/05/25 05:26:35;;;;;;;4.53;3.30;;;;;;;23.62;55.74;96381.69;5096752;28;20044;-62
2023/05/25 05:29:03;;;;;;;3.65;3.35;;;;;;;23.95;54.93;96382.13;5096829;28;20089;-64
2023/05/25 05:31:30;;;;;;;6.03;3.15;;;;;;;24.15;52.14;96390.94;5096814;28;20044;-62
2023/05/25 05:33:59;;;;;;;5.30;3.10;;;;;;;24.44;51.04;96392.59;5096730;28;20055;-65
2023/05/25 05:36:28;;;;;;;4.68;2.65;;;;;;;24.86;50.34;96390.38;5096603;28;20048;-64
2023/05/25 05:38:55;;;;;;;6.40;3.28;;;;;;;25.30;50.09;96396.81;5096493;28;20056;-64
2023/05/25 05:41:22;;;;;;;3.70;3.40;;;;;;;25.56;50.54;96396.84;5096662;28;20047;-63
2023/05/25 05:43:49;;;;;;;3.80;2.70;;;;;;;25.59;50.19;96396.53;5096565;28;20040;-65
2023/05/25 05:46:17;;;;;;;3.47;2.97;;;;;;;25.80;49.78;96402.53;5096380;28;20051;-63
2023/05/25 05:48:44;;;;;;;4.18;2.80;;;;;;;25.92;50.14;96401.28;5096317;28;20052;-63
2023/05/25 05:51:12;;;;;;;4.55;2.85;;;;;;;25.99;49.41;96402.34;5096308;28;20051;-63
2023/05/25 05:53:39;;;;;;;3.75;3.20;;;;;;;26.13;49.29;96405.41;5096317;28;20048;-64
2023/05/25 05:56:06;;;;;;;7.13;3.33;;;;;;;26.28;48.30;96405.66;5096241;28;20059;-62
2023/05/25 05:58:33;;;;;;;3.78;2.88;;;;;;;26.41;48.49;96412.41;5096275;28;20052;-63
2023/05/25 06:01:02;;;;;;;6.15;2.95;;;;;;;26.52;47.55;96419.34;5096297;28;20098;-62
2023/05/25 06:03:29;;;;;;;3.25;2.80;;;;;;;26.68;47.81;96419.38;5096188;28;20054;-64
2023/05/25 06:05:56;;;;;;;6.72;3.10;;;;;;;26.79;47.33;96417.41;5096186;28;20063;-63
2023/05/25 06:08:26;;;;;;;3.00;2.70;;;;;;;26.84;46.48;96423.09;5096064;28;20374;-63
2023/05/25 06:10:54;;;;;;;5.70;2.92;;;;;;;27.08;45.27;96419.66;5096144;28;20056;-62
2023/05/25 06:13:22;;;;;;;4.43;2.65;;;;;;;27.19;45.28;96433.75;5096020;28;20066;-62
2023/05/25 06:15:49;;;;;;;3.83;2.60;;;;;;;27.34;44.23;96424.06;5096206;28;20436;-63
2023/05/25 06:18:16;;;;;;;5.18;2.75;;;;;;;27.46;43.66;96429.06;5095911;28;20052;-64
2023/05/25 06:20:43;;;;;;;4.97;2.50;;;;;;;27.73;42.93;96427.06;5095834;28;20485;-66
2023/05/25 06:23:12;;;;;;;3.10;2.60;;;;;;;28.03;43.12;96431.88;5095978;28;20446;-63
2023/05/25 06:25:41;;;;;;;3.05;2.55;;;;;;;28.32;41.39;96431.31;5095708;28;20052;-65
2023/05/25 06:28:09;;;;;;;3.90;2.75;;;;;;;28.62;41.06;96436.06;5095593;28;20485;-61
2023/05/25 06:30:36;;;;;;;4.25;2.60;;;;;;;28.84;40.04;96436.31;5094769;28;20061;-63
2023/05/25 06:33:03;;;;;;;9.90;2.72;;;;;;;29.04;39.31;96438.56;5095713;28;20079;-62
2023/05/25 06:35:30;;;;;;;4.60;2.55;;;;;;;29.26;38.56;96447.69;5095752;28;20397;-63
2023/05/25 06:37:57;;;;;;;3.92;2.40;;;;;;;29.31;37.94;96439.88;5095348;28;20481;-62
2023/05/25 06:40:24;;;;;;;6.50;2.90;;;;;;;29.43;38.95;96443.00;5095510;28;20097;-64
2023/05/25 06:42:52;;;;;;;7.32;2.70;;;;;;;29.42;34.46;96445.88;5095480;28;20478;-62
2023/05/25 06:45:19;;;;;;;2.97;2.47;;;;;;;28.86;34.46;96435.09;5095351;28;20055;-64
2023/05/25 06:47:46;;;;;;;5.40;2.60;;;;;;;28.74;36.36;96445.44;5095171;28;20058;-61
2023/05/25 06:50:13;;;;;;;2.70;2.38;;;;;;;28.80;35.32;96440.38;5095141;28;20039;-61
2023/05/25 06:52:40;;;;;;;3.30;2.53;;;;;;;28.78;37.21;96439.69;5095248;28;20097;-65
2023/05/25 06:55:08;;;;;;;4.85;2.10;;;;;;;28.61;38.62;96434.41;5095132;28;20458;-63
2023/05/25 06:57:35;;;;;;;2.85;2.55;;;;;;;28.93;35.75;96434.41;5095044;28;20063;-62
2023/05/25 07:00:10;;;;;;;7.03;2.45;;;;;;;28.77;35.51;96433.47;5095117;28;20047;-65
2023/05/25 07:02:37;;;;;;;6.82;2.63;;;;;;;28.43;36.14;96437.31;5094999;28;20044;-65
2023/05/25 07:05:05;;;;;;;2.67;2.20;;;;;;;27.73;35.43;96437.81;5095205;28;20131;-64
2023/05/25 07:07:33;;;;;;;2.92;2.60;;;;;;;27.45;35.41;96444.34;5094886;28;20074;-66
2023/05/25 07:10:00;;;;;;;4.82;2.72;;;;;;;27.21;37.67;96435.25;5094791;28;20109;-65
2023/05/25 07:12:27;;;;;;;3.38;2.70;;;;;;;27.26;36.52;96440.13;5094891;28;20072;-65
2023/05/25 07:14:54;;;;;;;6.95;2.67;;;;;;;27.42;36.28;96444.66;5094746;28;20547;-63
2023/05/25 07:17:22;;;;;;;4.43;2.70;;;;;;;27.60;37.26;96441.81;5094767;28;20561;-66
2023/05/25 07:19:49;;;;;;;7.80;2.67;;;;;;;27.83;37.59;96438.47;5094685;28;20087;-64
2023/05/25 07:22:17;;;;;;;3.53;2.50;;;;;;;27.59;36.38;96440.16;5094554;28;20052;-63
2023/05/25 07:24:45;;;;;;;2.75;2.38;;;;;;;27.18;38.16;96434.78;5094640;28;20048;-65
2023/05/25 07:27:12;;;;;;;6.28;2.90;;;;;;;26.96;38.47;96442.41;5094531;28;20478;-65
2023/05/25 07:29:40;;;;;;;3.33;2.55;;;;;;;27.25;39.26;96446.53;5094570;28;20422;-65
2023/05/25 07:32:07;;;;;;;3.45;2.50;;;;;;;27.33;36.87;96440.31;5094617;28;20051;-63
2023/05/25 07:34:36;;;;;;;3.33;2.55;;;;;;;27.28;38.18;96439.97;5094484;28;20052;-65
2023/05/25 07:37:03;;;;;;;6.00;2.33;;;;;;;27.14;38.61;96439.63;5094312;28;20055;-65
2023/05/25 07:39:30;;;;;;;4.30;2.72;;;;;;;26.96;39.06;96439.72;5094198;28;20052;-63
2023/05/25 07:41:57;;;;;;;8.05;2.92;;;;;;;27.00;38.68;96444.63;5094079;28;20044;-63
2023/05/25 07:44:24;;;;;;;9.57;2.60;;;;;;;27.10;37.26;96443.66;5094222;28;20050;-62
2023/05/25 07:46:51;;;;;;;3.47;2.33;;;;;;;27.19;37.60;96442.66;5094078;28;20482;-63
2023/05/25 07:49:18;;;;;;;3.42;2.50;;;;;;;27.24;38.29;96439.47;5094101;28;20051;-64
2023/05/25 07:51:47;;;;;;;5.65;2.30;;;;;;;26.92;37.65;96441.91;5093996;28;20087;-61
2023/05/25 07:54:14;;;;;;;6.05;2.40;;;;;;;26.69;37.88;96438.97;5094193;28;20052;-61
2023/05/25 07:56:41;;;;;;;3.90;2.30;;;;;;;26.70;36.26;96440.69;5094029;28;20101;-65
2023/05/25 07:59:08;;;;;;;5.32;2.35;;;;;;;26.44;36.64;96438.91;5094087;28;20056;-64
2023/05/25 08:01:37;;;;;;;4.78;2.45;;;;;;;26.24;37.38;96444.47;5093997;28;20040;-61
2023/05/25 08:04:04;;;;;;;7.30;2.50;;;;;;;25.79;38.17;96433.03;5094016;28;20051;-63
2023/05/25 08:06:33;;;;;;;4.05;2.20;;;;;;;25.96;38.88;96442.84;5093987;28;20055;-62
2023/05/25 08:09:03;;;;;;;2.47;2.10;;;;;;;25.77;38.40;96443.03;5093728;28;20048;-62
2023/05/25 08:11:30;;;;;;;;;;;;;;;25.90;39.23;96440.78;5094251;28;20056;-63
2023/05/25 08:13:58;;;;;;;6.75;2.60;;;;;;;25.98;39.92;96446.19;5093654;28;19919;-62
2023/05/25 08:16:26;;;;;;;4.32;2.45;;;;;;;25.80;39.63;96429.34;5093810;28;20048;-62
2023/05/25 08:18:53;;;;;;;5.50;2.38;;;;;;;25.80;39.74;96434.69;5093746;28;20075;-63
2023/05/25 08:21:20;;;;;;;2.78;2.38;;;;;;;25.82;37.97;96427.31;5093626;28;20044;-64
2023/05/25 08:23:49;;;;;;;4.32;2.30;;;;;;;25.44;38.54;96436.41;5093633;28;20083;-62
2023/05/25 08:26:17;;;;;;;4.95;2.60;;;;;;;25.49;40.02;96426.06;5093498;28;20135;-63
2023/05/25 08:28:44;;;;;;;5.10;2.13;;;;;;;25.61;41.30;96437.41;5093383;28;20130;-64
2023/05/25 08:31:12;;;;;;;5.05;2.42;;;;;;;25.65;38.96;96429.06;5093564;28;20044;-67
2023/05/25 08:33:38;;;;;;;3.05;2.08;;;;;;;25.61;38.17;96434.72;5093614;28;20658;-62
2023/05/25 08:36:08;;;;;;;5.35;2.40;;;;;;;25.43;38.32;96432.03;5093313;28;20449;-61
2023/05/25 08:38:35;;;;;;;6.15;2.35;;;;;;;25.15;41.36;96436.66;5093147;28;20098;-65
2023/05/25 08:41:06;;;;;;;4.32;2.40;;;;;;;24.92;38.74;96429.91;5093318;28;20473;-64
2023/05/25 08:43:35;;;;;;;5.97;2.35;;;;;;;25.09;39.30;96436.28;5093195;28;20056;-63
2023/05/25 08:46:04;;;;;;;3.70;2.17;;;;;;;25.09;39.44;96420.22;5093266;28;20397;-67
2023/05/25 08:48:35;;;;;;;5.57;2.35;;;;;;;25.01;39.03;96438.03;5093387;28;20048;-63
2023/05/25 08:51:04;;;;;;;4.00;2.60;;;;;;;24.24;40.78;96429.28;5093232;28;20165;-65
2023/05/25 08:53:35;;;;;;;4.68;2.50;;;;;;;24.04;43.13;96424.00;5092656;28;20513;-65
2023/05/25 08:56:18;;;;;;;3.28;2.50;;;;;;;23.76;42.70;96421.25;5093088;28;20536;-62
2023/05/25 08:58:53;;;;;;;3.55;2.67;;;;;;;23.98;44.83;96413.88;5093248;28;20040;-63
2023/05/25 09:01:22;;;;;;;7.00;2.58;;;;;;;24.46;41.94;96412.03;5093140;28;20044;-63
2023/05/25 09:03:50;;;;;;;4.20;2.22;;;;;;;24.50;40.46;96428.59;5093158;28;20048;-63
2023/05/25 09:06:17;;;;;;;2.60;2.40;;;;;;;24.40;42.33;96420.63;5093115;28;20131;-63
2023/05/25 09:08:45;;;;;;;2.40;2.10;;;;;;;24.69;41.24;96414.28;5092925;28;20059;-62
2023/05/25 09:11:14;;;;;;;3.13;2.17;;;;;;;25.03;39.89;96417.31;5093152;28;20131;-65
2023/05/25 09:13:42;;;;;;;5.47;2.35;;;;;;;24.76;40.28;96421.69;5092944;28;20051;-63
2023/05/25 09:16:11;;;;;;;3.30;2.20;;;;;;;24.86;42.27;96414.44;5092933;28;20048;-64
2023/05/25 09:18:39;;;;;;;2.70;2.30;;;;;;;24.98;42.25;96404.38;5092997;28;20683;-64
2023/05/25 09:21:06;;;;;;;4.93;2.10;;;;;;;25.31;41.37;96407.34;5092818;28;20059;-64
2023/05/25 09:23:35;;;;;;;2.60;2.20;;;;;;;25.46;41.21;96407.63;5092895;28;20090;-63
2023/05/25 09:26:02;;;;;;;6.28;2.35;;;;;;;25.38;41.02;96406.75;5092889;28;20127;-64
2023/05/25 09:28:29;;;;;;;3.38;2.20;;;;;;;25.17;41.55;96413.25;5092842;28;20405;-65
2023/05/25 09:30:56;;;;;;;5.00;2.50;;;;;;;24.71;43.69;96406.94;5092937;28;20118;-64
2023/05/25 09:33:25;;;;;;;2.92;2.50;;;;;;;24.77;44.86;96405.50;5092820;28;20044;-66
2023/05/25 09:35:52;;;;;;;2.88;2.55;;;;;;;24.85;44.39;96396.72;5092851;28;20044;-65
2023/05/25 09:38:20;;;;;;;3.35;2.58;;;;;;;25.10;42.67;96388.94;5092792;28;20044;-62
2023/05/25 09:40:47;;;;;;;2.75;2.08;;;;;;;25.40;42.19;96388.69;5092824;28;20055;-63
2023/05/25 09:43:14;;;;;;;4.70;2.60;;;;;;;25.46;41.44;96396.94;5092836;28;20047;-64
2023/05/25 09:45:42;;;;;;;6.38;2.53;;;;;;;25.58;43.40;96402.03;5092659;28;20071;-66
2023/05/25 09:48:09;;;;;;;5.00;2.50;;;;;;;25.44;42.69;96406.13;5092617;28;20456;-66
2023/05/25 09:50:38;;;;;;;2.83;2.25;;;;;;;25.44;43.37;96398.09;5092761;28;20093;-62
2023/05/25 09:53:07;;;;;;;9.88;3.05;;;;;;;25.65;44.28;96403.13;5092645;28;20080;-66
2023/05/25 09:55:34;;;;;;;5.00;2.83;;;;;;;25.93;42.56;96405.66;5092559;28;20095;-64
2023/05/25 09:58:01;;;;;;;3.45;2.30;;;;;;;25.96;42.84;96391.09;5092626;28;20052;-64
2023/05/25 10:00:28;;;;;;;2.80;2.55;;;;;;;25.85;42.45;96398.38;5092705;28;20079;-66
2023/05/25 10:02:55;;;;;;;3.05;2.63;;;;;;;25.80;43.23;96397.19;5092554;28;20503;-66
2023/05/25 10:05:22;;;;;;;4.88;2.47;;;;;;;25.92;43.05;96384.38;5093685;28;20131;-63
2023/05/25 10:07:54;;;;;;;5.00;3.35;;;;;;;26.14;44.91;96395.50;5096121;28;20110;-64
2023/05/25 10:10:22;;;;;;;4.00;3.10;;;;;;;26.17;44.38;96385.31;5096177;28;20048;-62
2023/05/25 10:12:52;;;;;;;3.78;2.70;;;;;;;26.24;41.98;96389.03;5096066;28;20045;-66
2023/05/25 10:15:19;;;;;;;;;;;;;;;26.08;37.54;96394.31;5096567;28;20497;-63
2023/05/25 10:17:53;;;;;;;3.47;2.38;;;;;;;26.13;40.06;96373.25;5095937;28;19920;-64
2023/05/25 10:20:22;;;;;;;2.90;2.03;;;;;;;26.55;40.92;96376.94;5096035;28;20547;-65
2023/05/25 10:22:57;;;;;;;4.72;2.22;;;;;;;26.91;37.75;96369.63;5095944;28;20047;-67
2023/05/25 10:25:27;;;;;;;5.80;2.30;;;;;;;26.96;38.03;96375.34;5095775;28;20401;-66
2023/05/25 10:27:59;;;;;;;3.45;1.65;;;;;;;26.86;37.50;96364.78;5095636;28;20496;-64
2023/05/25 10:30:27;;;;;;;3.70;2.42;;;;;;;26.73;36.77;96362.56;5095712;28;20084;-64
2023/05/25 10:32:55;;;;;;;3.42;2.38;;;;;;;26.67;40.34;96364.06;5095751;28;20626;-66
2023/05/25 10:35:23;;;;;;;6.45;2.78;;;;;;;26.60;42.45;96368.41;5095641;28;20043;-66
2023/05/25 10:37:54;;;;;;;5.13;3.30;;;;;;;26.15;41.89;96357.84;5095356;28;20055;-68
2023/05/25 10:40:22;;;;;;;7.10;2.70;;;;;;;25.80;43.12;96352.50;5095556;28;20131;-63
2023/05/25 10:42:50;;;;;;;5.68;2.65;;;;;;;26.07;44.98;96360.50;5095448;28;20146;-67
2023/05/25 10:45:18;;;;;;;7.93;3.17;;;;;;;25.51;44.67;96374.19;5095377;28;20135;-67
2023/05/25 10:47:46;;;;;;;5.28;4.28;;;;;;;25.26;45.19;96369.53;5095216;28;20555;-66
2023/05/25 10:50:21;;;;;;;5.18;3.40;;;;;;;25.02;45.81;96376.34;5095295;28;20073;-64
2023/05/25 10:53:00;;;;;;;5.13;2.85;;;;;;;24.78;44.66;96363.56;5095297;28;20048;-64
2023/05/25 10:55:30;;;;;;;4.93;3.30;;;;;;;24.91;45.95;96358.69;5095257;28;20383;-66
2023/05/25 10:58:11;;;;;;;3.25;2.45;;;;;;;25.00;44.80;96362.28;5095309;28;20143;-63
2023/05/25 11:00:40;;;;;;;5.13;3.17;;;;;;;24.85;44.25;96356.59;5095300;28;20087;-65
2023/05/25 11:03:07;;;;;;;5.82;3.10;;;;;;;24.73;44.92;96350.63;5095004;28;20131;-66
2023/05/25 11:05:37;;;;;;;4.05;2.88;;;;;;;24.88;45.29;96350.13;5094923;28;20447;-63
2023/05/25 11:08:07;;;;;;;4.05;3.08;;;;;;;25.09;44.38;96353.34;5094896;28;20055;-65
2023/05/25 11:10:53;;;;;;;4.30;2.70;;;;;;;25.22;44.84;96349.41;5094904;28;20076;-65
2023/05/25 11:13:38;;;;;;;7.47;3.03;;;;;;;25.07;46.00;96367.88;5094852;28;20044;-65
2023/05/25 11:16:16;;;;;;;4.85;2.90;;;;;;;25.10;46.66;96373.75;5094348;28;20507;-64
2023/05/25 11:18:46;;;;;;;6.38;2.90;;;;;;;25.12;46.89;96386.97;5094844;28;20051;-64
2023/05/25 11:21:21;;;;;;;3.65;2.70;;;;;;;24.93;48.66;96387.97;5094740;28;20052;-64
2023/05/25 11:24:01;;;;;;;4.50;3.35;;;;;;;24.81;48.64;96390.84;5094633;28;20040;-66
2023/05/25 11:26:29;;;;;;;12.25;3.08;;;;;;;24.66;50.18;96397.69;5094774;28;20050;-64
2023/05/25 11:28:58;;;;;;;3.95;3.33;;;;;;;24.65;49.85;96396.03;5094527;28;20478;-63
2023/05/25 11:31:31;;;;;;;3.15;2.85;;;;;;;24.44;50.07;96381.91;5094423;28;20079;-65
2023/05/25 11:33:59;;;;;;;4.63;2.50;;;;;;;24.45;49.76;96380.09;5094596;28;20459;-66
2023/05/25 11:36:30;;;;;;;4.80;2.83;;;;;;;24.55;49.71;96372.00;5094441;28;20094;-67
2023/05/25 11:39:00;;;;;;;;;;;;;;;24.94;49.47;96357.53;5094559;28;20131;-65